Terminal Aerodrome Forecast
Issued by NWS Jackson, MS

Home | Current Version | Previous Version | Text Only | Print | Product List | Glossary On
Versions: 1 2 3 4 5 6 7 8 9 10 11 12 13 14 15 16
162
FTUS44 KMEG 250530
TAFTUP
TAF
KTUP 250530Z 2506/2606 00000KT P6SM SKC
      TEMPO 2509/2513 3SM BR
     FM251500 20006KT P6SM SCT040=

USA.gov is the U.S. government's official web portal to all federal, state and local government web resources and services.